Time;durP1;ratioP1;P1;durP2;ratioP2;P2;SDS_P1;SDS_P2;PMS_P1;PMS_P2;Temp;Humidity;BMP_temperature;BMP_pressure;BME280_temperature;BME280_humidity;BME280_pressure;Samples;Min_cycle;Max_cycle;Signal;HPM_P1;HPM_P2
2021/10/07 00:00:12;;;;;;;;;;;;;;;9.99;83.54;102233.69;10144423;28;19926;-68
2021/10/07 00:05:09;;;;;;;;;;;;;;;9.97;83.29;102235.06;10141742;28;19976;-68
2021/10/07 00:10:06;;;;;;;;;;;;;;;9.89;82.72;102240.00;10142245;28;19981;-68
2021/10/07 00:15:04;;;;;;;;;;;;;;;9.83;83.42;102245.72;10147359;28;19941;-67
2021/10/07 00:20:00;;;;;;;;;;;;;;;9.79;82.49;102256.38;10153008;28;20009;-68
2021/10/07 00:24:57;;;;;;;;;;;;;;;9.74;83.13;102264.59;10144706;28;20610;-67
2021/10/07 00:29:58;;;;;;;;;;;;;;;9.72;83.24;102271.41;10142796;28;19921;-69
2021/10/07 00:35:13;;;;;;;;;;;;;;;9.66;83.38;102273.34;10146591;28;20383;-69
2021/10/07 00:40:09;;;;;;;;;;;;;;;9.58;83.24;102271.97;10145285;28;19972;-68
2021/10/07 00:45:07;;;;;;;;;;;;;;;9.53;82.87;102279.34;10139375;28;20360;-68
2021/10/07 00:50:04;;;;;;;;;;;;;;;9.47;82.75;102284.81;10133253;28;19925;-68
2021/10/07 00:55:00;;;;;;;;;;;;;;;9.43;82.87;102294.63;10144945;28;19967;-68
2021/10/07 00:59:57;;;;;;;;;;;;;;;9.40;83.11;102286.97;10147537;28;20052;-70
2021/10/07 01:04:54;;;;;;;;;;;;;;;9.39;83.44;102285.31;10137006;28;19944;-69
2021/10/07 01:09:50;;;;;;;;;;;;;;;9.35;82.79;102288.88;10129993;28;19949;-69
2021/10/07 01:14:51;;;;;;;;;;;;;;;9.32;83.22;102306.63;10143732;28;19945;-69
2021/10/07 01:19:48;;;;;;;;;;;;;;;9.26;83.89;102296.78;10140054;28;20385;-68
2021/10/07 01:24:45;;;;;;;;;;;;;;;9.23;83.74;102302.78;10146840;28;20020;-68
2021/10/07 01:29:49;;;;;;;;;;;;;;;9.19;83.42;102296.22;10135142;28;19922;-68
2021/10/07 01:34:46;;;;;;;;;;;;;;;9.15;83.92;102298.66;10138075;28;19925;-68
2021/10/07 01:39:42;;;;;;;;;;;;;;;9.11;83.74;102289.38;10137314;28;19925;-68
2021/10/07 01:44:39;;;;;;;;;;;;;;;9.12;83.60;102301.09;10141792;28;20344;-69
2021/10/07 01:49:35;;;;;;;;;;;;;;;9.08;83.63;102300.03;10131160;28;20400;-69
2021/10/07 01:54:32;;;;;;;;;;;;;;;9.02;83.60;102297.25;10135137;28;20000;-69
2021/10/07 01:59:28;;;;;;;;;;;;;;;9.00;84.10;102302.16;10143969;28;19929;-67
2021/10/07 02:04:24;;;;;;;;;;;;;;;8.95;83.69;102301.34;10142724;28;19926;-68
2021/10/07 02:09:21;;;;;;;;;;;;;;;8.90;83.86;102315.78;10140190;28;20415;-68
2021/10/07 02:14:17;;;;;;;;;;;;;;;8.85;83.43;102318.50;10143267;28;19981;-68
2021/10/07 02:19:13;;;;;;;;;;;;;;;8.84;83.29;102333.22;10146764;28;19961;-68
2021/10/07 02:24:10;;;;;;;;;;;;;;;8.77;84.16;102333.47;10142192;28;19971;-69
2021/10/07 02:29:07;;;;;;;;;;;;;;;8.72;83.44;102329.88;10154514;28;19988;-68
2021/10/07 02:34:03;;;;;;;;;;;;;;;8.68;83.57;102340.53;10141023;28;20427;-68
2021/10/07 02:39:00;;;;;;;;;;;;;;;8.64;83.69;102351.13;10144109;28;20439;-68
2021/10/07 02:43:56;;;;;;;;;;;;;;;8.66;83.92;102353.59;10142620;28;19937;-68
2021/10/07 02:48:53;;;;;;;;;;;;;;;8.70;84.16;102365.59;10131318;28;20368;-67
2021/10/07 02:53:49;;;;;;;;;;;;;;;8.71;84.46;102361.00;10140231;28;19926;-67
2021/10/07 02:58:45;;;;;;;;;;;;;;;8.64;84.83;102372.13;10147209;28;19980;-68
2021/10/07 03:03:42;;;;;;;;;;;;;;;8.61;84.44;102373.47;10162912;28;20396;-70
2021/10/07 03:08:38;;;;;;;;;;;;;;;8.59;83.67;102381.09;10146453;28;20009;-70
2021/10/07 03:13:35;;;;;;;;;;;;;;;8.55;83.92;102393.59;10143860;28;19945;-70
2021/10/07 03:18:31;;;;;;;;;;;;;;;8.54;84.45;102397.44;10154981;28;19921;-69
2021/10/07 03:23:27;;;;;;;;;;;;;;;8.53;84.71;102393.03;10141918;28;20273;-67
2021/10/07 03:28:24;;;;;;;;;;;;;;;8.49;85.12;102408.28;10143755;28;19930;-67
2021/10/07 03:33:20;;;;;;;;;;;;;;;8.44;85.01;102405.53;10141400;28;20372;-68
2021/10/07 03:38:16;;;;;;;;;;;;;;;8.41;84.08;102411.50;10148819;28;19933;-68
2021/10/07 03:43:13;;;;;;;;;;;;;;;8.36;84.04;102419.63;10147021;28;20391;-68
2021/10/07 03:48:10;;;;;;;;;;;;;;;8.33;84.46;102425.56;10152311;28;19948;-68
2021/10/07 03:53:06;;;;;;;;;;;;;;;8.28;84.78;102434.53;10144518;28;20390;-68
2021/10/07 03:58:03;;;;;;;;;;;;;;;8.28;84.68;102439.16;10151309;28;19921;-68
2021/10/07 04:03:03;;;;;;;;;;;;;;;8.27;85.11;102448.44;10143997;28;20348;-69
2021/10/07 04:07:59;;;;;;;;;;;;;;;8.25;85.12;102461.50;10153880;28;20299;-69
2021/10/07 04:12:56;;;;;;;;;;;;;;;8.23;85.01;102465.28;10140567;28;19932;-70
2021/10/07 04:17:53;;;;;;;;;;;;;;;8.20;84.88;102465.81;10143999;28;20383;-70
2021/10/07 04:22:49;;;;;;;;;;;;;;;8.22;84.50;102474.56;10131422;28;20909;-73
2021/10/07 04:27:46;;;;;;;;;;;;;;;8.19;84.67;102485.97;10147692;28;19925;-72
2021/10/07 04:32:42;;;;;;;;;;;;;;;8.19;85.01;102496.88;10144196;28;19922;-72
2021/10/07 04:37:38;;;;;;;;;;;;;;;8.20;84.96;102493.06;10146883;28;19976;-71
2021/10/07 04:42:35;;;;;;;;;;;;;;;8.21;85.14;102500.19;10142461;28;20731;-71
2021/10/07 04:47:31;;;;;;;;;;;;;;;8.18;84.45;102508.03;10138670;28;19928;-72
2021/10/07 04:52:28;;;;;;;;;;;;;;;8.14;84.08;102513.16;10132422;28;20402;-71
2021/10/07 04:57:24;;;;;;;;;;;;;;;8.10;84.09;102520.22;10131016;28;19976;-73
2021/10/07 05:02:21;;;;;;;;;;;;;;;8.08;84.19;102527.84;10150078;28;19922;-74
2021/10/07 05:07:17;;;;;;;;;;;;;;;8.04;84.05;102542.22;10135673;28;19928;-73
2021/10/07 05:12:14;;;;;;;;;;;;;;;7.96;84.63;102546.19;10145697;28;19928;-71
2021/10/07 05:17:10;;;;;;;;;;;;;;;7.92;84.63;102561.44;10143736;28;19932;-72
2021/10/07 05:22:07;;;;;;;;;;;;;;;7.87;84.44;102558.66;10147170;28;20383;-70
2021/10/07 05:27:03;;;;;;;;;;;;;;;7.87;84.83;102572.28;10148283;28;19975;-73
2021/10/07 05:32:00;;;;;;;;;;;;;;;7.86;85.19;102576.06;10138596;28;20492;-74
2021/10/07 05:36:57;;;;;;;;;;;;;;;7.86;85.15;102590.50;10127447;28;19937;-74
2021/10/07 05:41:53;;;;;;;;;;;;;;;7.85;85.38;102588.03;10148730;28;20376;-73
2021/10/07 05:46:49;;;;;;;;;;;;;;;7.83;85.34;102599.19;10145627;28;19991;-73
2021/10/07 05:51:47;;;;;;;;;;;;;;;7.80;86.01;102597.78;10143930;28;19961;-73
2021/10/07 05:56:44;;;;;;;;;;;;;;;7.83;86.03;102601.91;10139143;28;20012;-73
2021/10/07 06:01:41;;;;;;;;;;;;;;;7.85;85.77;102609.81;10127925;28;20017;-74
2021/10/07 06:06:38;;;;;;;;;;;;;;;7.88;86.03;102614.75;10137849;28;20008;-75
2021/10/07 06:11:35;;;;;;;;;;;;;;;7.90;86.18;102624.31;10141103;28;19926;-72
2021/10/07 06:16:33;;;;;;;;;;;;;;;7.94;86.07;102630.09;10132244;28;19932;-73
2021/10/07 06:21:29;;;;;;;;;;;;;;;7.97;86.19;102640.47;10141707;28;19922;-74
2021/10/07 06:26:27;;;;;;;;;;;;;;;8.01;86.56;102655.25;10130039;28;19926;-72
2021/10/07 06:31:23;;;;;;;;;;;;;;;8.01;86.98;102656.06;10132784;28;20368;-74
2021/10/07 06:36:20;;;;;;;;;;;;;;;8.05;87.37;102659.09;10135311;28;19985;-74
2021/10/07 06:41:17;;;;;;;;;;;;;;;8.10;87.02;102666.50;10148423;28;20354;-73
2021/10/07 06:46:13;;;;;;;;;;;;;;;8.12;87.71;102676.09;10155918;28;19953;-74
2021/10/07 06:51:10;;;;;;;;;;;;;;;8.18;87.84;102674.25;10148594;28;19921;-73
2021/10/07 06:56:07;;;;;;;;;;;;;;;8.23;88.49;102683.28;10141292;28;19969;-75
2021/10/07 07:01:03;;;;;;;;;;;;;;;8.39;88.65;102691.66;10139327;28;19945;-72
2021/10/07 07:06:00;;;;;;;;;;;;;;;8.47;88.69;102698.59;10154045;28;19933;-74
2021/10/07 07:10:56;;;;;;;;;;;;;;;8.53;88.71;102703.84;10144518;28;19933;-72
2021/10/07 07:15:52;;;;;;;;;;;;;;;8.60;88.93;102709.94;10144920;28;19922;-73
2021/10/07 07:20:49;;;;;;;;;;;;;;;8.68;89.23;102716.00;10127765;28;20426;-73
2021/10/07 07:25:45;;;;;;;;;;;;;;;8.75;88.92;102722.06;10147045;28;19951;-72
2021/10/07 07:30:42;;;;;;;;;;;;;;;8.82;88.91;102730.91;10148587;28;19961;-72
2021/10/07 07:35:38;;;;;;;;;;;;;;;8.89;90.00;102728.81;10128026;28;19972;-73
2021/10/07 07:40:35;;;;;;;;;;;;;;;9.00;90.54;102735.97;10137567;28;20542;-73
2021/10/07 07:45:31;;;;;;;;;;;;;;;9.14;89.89;102735.56;10143415;28;20399;-72
2021/10/07 07:50:29;;;;;;;;;;;;;;;9.25;89.86;102746.31;10145773;28;19921;-72
2021/10/07 07:55:26;;;;;;;;;;;;;;;9.37;90.42;102740.69;10146431;28;19973;-72
2021/10/07 08:00:22;;;;;;;;;;;;;;;9.48;90.14;102747.88;10149178;28;20266;-73
2021/10/07 08:05:19;;;;;;;;;;;;;;;9.64;90.97;102739.81;10156281;28;19963;-72
2021/10/07 08:10:15;;;;;;;;;;;;;;;9.80;91.76;102746.22;10146278;28;19957;-72
2021/10/07 08:15:12;;;;;;;;;;;;;;;9.89;91.46;102748.19;10152241;28;19956;-73
2021/10/07 08:20:09;;;;;;;;;;;;;;;9.99;91.66;102752.06;10150317;28;19972;-72
2021/10/07 08:25:07;;;;;;;;;;;;;;;10.16;91.06;102752.69;10153389;28;19925;-76
2021/10/07 08:30:05;;;;;;;;;;;;;;;10.35;90.18;102755.00;10144126;28;19926;-72
2021/10/07 08:35:01;;;;;;;;;;;;;;;10.54;89.16;102756.22;10147522;28;19961;-72
2021/10/07 08:39:57;;;;;;;;;;;;;;;10.77;87.09;102754.06;10150399;28;20295;-74
2021/10/07 08:44:54;;;;;;;;;;;;;;;10.96;87.05;102755.22;10146680;28;19922;-72
2021/10/07 08:49:52;;;;;;;;;;;;;;;11.09;86.80;102760.19;10149229;28;19965;-71
2021/10/07 08:54:48;;;;;;;;;;;;;;;11.17;85.71;102758.81;10141956;28;19964;-72
2021/10/07 08:59:45;;;;;;;;;;;;;;;11.31;86.77;102761.84;10141370;28;19973;-72
2021/10/07 09:04:42;;;;;;;;;;;;;;;11.41;85.68;102761.84;10151282;28;19964;-73
2021/10/07 09:09:41;;;;;;;;;;;;;;;11.49;85.90;102764.06;10143856;28;19922;-73
2021/10/07 09:14:42;;;;;;;;;;;;;;;11.58;85.76;102756.94;10138506;28;19977;-72
2021/10/07 09:19:40;;;;;;;;;;;;;;;11.67;85.06;102759.91;10149645;28;19976;-73
2021/10/07 09:24:38;;;;;;;;;;;;;;;11.78;83.90;102766.22;10146015;28;20189;-73
2021/10/07 09:29:37;;;;;;;;;;;;;;;11.92;82.06;102767.31;10146132;28;20017;-71
2021/10/07 09:34:44;;;;;;;;;;;;;;;12.06;80.76;102772.22;10142042;28;19960;-72
2021/10/07 09:39:45;;;;;;;;;;;;;;;12.18;80.50;102775.47;10147411;28;19925;-73
2021/10/07 09:44:55;;;;;;;;;;;;;;;12.36;81.13;102777.63;10147518;28;19922;-72
2021/10/07 09:49:56;;;;;;;;;;;;;;;12.53;79.91;102779.19;10146088;28;19922;-72
2021/10/07 09:54:56;;;;;;;;;;;;;;;12.64;79.10;102778.06;10139958;28;19976;-72
2021/10/07 09:59:55;;;;;;;;;;;;;;;12.87;79.50;102771.09;10149440;28;20434;-71
2021/10/07 10:04:54;;;;;;;;;;;;;;;13.03;79.25;102778.13;10149482;28;19984;-72
2021/10/07 10:09:51;;;;;;;;;;;;;;;13.10;77.50;102779.75;10137274;28;20281;-72
2021/10/07 10:14:52;;;;;;;;;;;;;;;13.14;76.85;102776.13;10161566;28;19969;-72
2021/10/07 10:19:52;;;;;;;;;;;;;;;13.20;76.16;102774.97;10151056;28;20024;-72
2021/10/07 10:24:49;;;;;;;;;;;;;;;13.26;73.93;102773.84;10138072;28;20344;-72
2021/10/07 10:29:46;;;;;;;;;;;;;;;13.33;72.60;102773.56;10149639;28;19965;-72
2021/10/07 10:34:44;;;;;;;;;;;;;;;13.37;73.55;102779.31;10156464;28;20303;-72
2021/10/07 10:39:47;;;;;;;;;;;;;;;13.50;72.39;102773.13;10132554;28;19996;-73
2021/10/07 10:44:51;;;;;;;;;;;;;;;13.66;72.11;102788.38;10153433;28;19928;-72
2021/10/07 10:49:51;;;;;;;;;;;;;;;13.67;70.79;102783.75;10147157;28;19927;-72
2021/10/07 10:55:03;;;;;;;;;;;;;;;13.79;70.60;102794.34;10155129;28;20403;-72
2021/10/07 11:00:07;;;;;;;;;;;;;;;13.91;69.96;102788.47;10150792;28;20346;-72
2021/10/07 11:05:15;;;;;;;;;;;;;;;13.95;70.32;102795.84;10147466;28;19922;-70
2021/10/07 11:10:27;;;;;;;;;;;;;;;14.03;69.26;102795.19;10145038;28;19921;-73
2021/10/07 11:15:25;;;;;;;;;;;;;;;14.17;67.59;102791.75;10156804;28;20016;-72
2021/10/07 11:20:29;;;;;;;;;;;;;;;14.26;68.99;102801.03;10157554;28;19921;-72
2021/10/07 11:25:26;;;;;;;;;;;;;;;14.44;69.05;102800.25;10150641;28;19952;-71
2021/10/07 11:30:26;;;;;;;;;;;;;;;14.57;67.45;102803.44;10148242;28;20300;-72
2021/10/07 11:35:22;;;;;;;;;;;;;;;14.70;67.54;102799.97;10140500;28;19932;-74
2021/10/07 11:40:21;;;;;;;;;;;;;;;14.89;66.43;102802.75;10145121;28;19926;-74
2021/10/07 11:45:28;;;;;;;;;;;;;;;15.15;66.65;102811.47;10149854;28;19960;-73
2021/10/07 11:50:25;;;;;;;;;;;;;;;15.39;63.11;102805.03;10138085;28;19929;-72
2021/10/07 11:55:23;;;;;;;;;;;;;;;15.67;61.69;102801.28;10148720;28;20419;-72
2021/10/07 12:00:35;;;;;;;;;;;;;;;15.81;62.56;102801.34;10142724;28;20352;-72
2021/10/07 12:05:32;;;;;;;;;;;;;;;16.04;61.61;102805.06;10144215;28;20536;-71
2021/10/07 12:10:36;;;;;;;;;;;;;;;16.39;60.43;102811.84;10141710;28;20004;-71
2021/10/07 12:15:32;;;;;;;;;;;;;;;16.54;58.18;102807.94;10149559;28;19972;-72
2021/10/07 12:20:28;;;;;;;;;;;;;;;16.90;58.62;102810.00;10154044;28;19921;-72
2021/10/07 12:25:24;;;;;;;;;;;;;;;17.11;58.16;102806.78;10148657;28;19921;-69
2021/10/07 12:30:21;;;;;;;;;;;;;;;17.44;58.33;102808.16;10149862;28;20009;-71
2021/10/07 12:35:24;;;;;;;;;;;;;;;17.70;56.18;102815.00;10142716;28;20017;-69
2021/10/07 12:40:26;;;;;;;;;;;;;;;18.43;55.99;102810.03;10145360;28;19968;-72
2021/10/07 12:45:23;;;;;;;;;;;;;;;19.33;54.67;102815.06;10143052;28;19957;-72
2021/10/07 12:50:20;;;;;;;;;;;;;;;19.80;54.36;102812.44;10134622;28;19976;-71
2021/10/07 12:55:18;;;;;;;;;;;;;;;20.18;55.17;102806.09;10130371;28;19930;-72
2021/10/07 13:00:27;;;;;;;;;;;;;;;20.25;50.90;102820.28;10143463;28;19925;-71
2021/10/07 13:05:26;;;;;;;;;;;;;;;20.34;52.69;102801.63;10144492;28;19922;-71
2021/10/07 13:10:22;;;;;;;;;;;;;;;20.09;51.42;102813.66;10156784;28;19922;-72
2021/10/07 13:15:19;;;;;;;;;;;;;;;19.83;50.46;102811.78;10148639;28;20426;-71
2021/10/07 13:20:18;;;;;;;;;;;;;;;19.66;49.45;102817.34;10144847;28;19972;-71
2021/10/07 13:25:15;;;;;;;;;;;;;;;19.49;51.17;102824.53;10147781;28;19968;-72
2021/10/07 13:30:16;;;;;;;;;;;;;;;19.19;51.76;102820.78;10143022;28;19929;-72
2021/10/07 13:35:13;;;;;;;;;;;;;;;18.94;52.90;102816.88;10149140;28;19921;-72
2021/10/07 13:40:09;;;;;;;;;;;;;;;18.85;51.58;102827.13;10128501;28;19960;-72
2021/10/07 13:45:06;;;;;;;;;;;;;;;18.68;51.98;102828.69;10139526;28;20356;-71
2021/10/07 13:50:03;;;;;;;;;;;;;;;18.48;52.63;102834.81;10141619;28;19953;-72
2021/10/07 13:54:59;;;;;;;;;;;;;;;18.50;53.46;102832.56;10139966;28;19980;-72
2021/10/07 13:59:55;;;;;;;;;;;;;;;18.35;51.82;102838.50;10146935;28;20431;-71
2021/10/07 14:04:52;;;;;;;;;;;;;;;18.37;53.16;102836.25;10141449;28;20049;-72
2021/10/07 14:09:49;;;;;;;;;;;;;;;18.36;55.53;102834.63;10146849;28;19980;-72
2021/10/07 14:14:45;;;;;;;;;;;;;;;18.29;55.61;102838.66;10134863;28;19921;-71
2021/10/07 14:19:41;;;;;;;;;;;;;;;18.18;53.90;102837.28;10151110;28;19980;-73
2021/10/07 14:24:38;;;;;;;;;;;;;;;18.08;54.87;102832.06;10140766;28;19929;-72
2021/10/07 14:29:44;;;;;;;;;;;;;;;17.86;54.64;102839.22;10141797;28;19926;-72
2021/10/07 14:34:40;;;;;;;;;;;;;;;17.79;56.01;102852.66;10139308;28;19922;-72
2021/10/07 14:39:37;;;;;;;;;;;;;;;17.80;55.25;102853.47;10136438;28;19980;-72
2021/10/07 14:44:34;;;;;;;;;;;;;;;17.63;55.84;102865.25;10143602;28;20395;-71
2021/10/07 14:49:31;;;;;;;;;;;;;;;17.58;57.77;102857.09;10127570;28;19922;-71
2021/10/07 14:54:27;;;;;;;;;;;;;;;17.59;58.08;102864.22;10145347;28;20009;-72
2021/10/07 14:59:23;;;;;;;;;;;;;;;17.58;58.15;102862.63;10157337;28;19929;-72
2021/10/07 15:04:19;;;;;;;;;;;;;;;17.50;59.43;102861.41;10158862;28;19984;-72
2021/10/07 15:09:16;;;;;;;;;;;;;;;17.43;59.29;102856.31;10153942;28;19925;-72
2021/10/07 15:14:12;;;;;;;;;;;;;;;17.18;58.78;102854.97;10152758;28;20032;-71
2021/10/07 15:19:08;;;;;;;;;;;;;;;17.13;60.29;102857.03;10145521;28;20354;-71
2021/10/07 15:24:06;;;;;;;;;;;;;;;16.97;61.05;102865.66;10150050;28;19953;-77
2021/10/07 15:29:04;;;;;;;;;;;;;;;16.83;60.34;102864.84;10133442;28;19922;-71
2021/10/07 15:34:01;;;;;;;;;;;;;;;16.75;62.67;102865.53;10148270;28;20596;-72
2021/10/07 15:38:57;;;;;;;;;;;;;;;16.73;62.82;102859.50;10151381;28;19925;-71
2021/10/07 15:43:53;;;;;;;;;;;;;;;16.76;62.32;102859.69;10144320;28;19922;-74
2021/10/07 15:48:49;;;;;;;;;;;;;;;16.68;63.40;102859.59;10146408;28;19972;-72
2021/10/07 15:53:50;;;;;;;;;;;;;;;16.52;64.13;102864.59;10152605;28;20008;-71
2021/10/07 15:58:47;;;;;;;;;;;;;;;16.38;64.99;102868.19;10160578;28;19945;-73
2021/10/07 16:03:44;;;;;;;;;;;;;;;16.20;65.19;102864.38;10151556;28;19976;-72
2021/10/07 16:08:40;;;;;;;;;;;;;;;16.05;66.02;102869.34;10148613;28;20380;-77
2021/10/07 16:13:37;;;;;;;;;;;;;;;15.91;66.23;102872.06;10150021;28;20009;-72
2021/10/07 16:18:34;;;;;;;;;;;;;;;15.75;67.01;102875.06;10143334;28;20451;-72
2021/10/07 16:23:31;;;;;;;;;;;;;;;15.58;67.39;102883.03;10143693;28;19933;-73
2021/10/07 16:28:29;;;;;;;;;;;;;;;15.45;68.10;102894.81;10141001;28;19980;-76
2021/10/07 16:33:28;;;;;;;;;;;;;;;15.29;68.65;102895.06;10146612;28;19956;-70
2021/10/07 16:38:25;;;;;;;;;;;;;;;15.13;68.41;102896.34;10138014;28;19968;-71
2021/10/07 16:43:22;;;;;;;;;;;;;;;15.00;69.47;102891.59;10142885;28;19921;-72
2021/10/07 16:48:18;;;;;;;;;;;;;;;14.88;69.75;102909.34;10143298;28;20289;-72
2021/10/07 16:53:15;;;;;;;;;;;;;;;14.75;69.64;102912.81;10147404;28;19925;-71
2021/10/07 16:58:12;;;;;;;;;;;;;;;14.64;70.46;102927.78;10144986;28;20053;-72
2021/10/07 17:03:08;;;;;;;;;;;;;;;14.50;70.55;102933.97;10139515;28;20413;-72
2021/10/07 17:08:04;;;;;;;;;;;;;;;14.39;71.19;102935.19;10143057;28;19949;-73
2021/10/07 17:13:01;;;;;;;;;;;;;;;14.27;71.29;102951.22;10145388;28;19968;-72
2021/10/07 17:17:58;;;;;;;;;;;;;;;14.18;71.90;102961.22;10135814;28;19925;-72
2021/10/07 17:22:55;;;;;;;;;;;;;;;14.06;72.14;102956.09;10137756;28;20394;-71
2021/10/07 17:27:51;;;;;;;;;;;;;;;13.97;72.57;102972.41;10141755;28;19976;-70
2021/10/07 17:32:47;;;;;;;;;;;;;;;13.87;72.66;102973.25;10142125;28;20025;-71
2021/10/07 17:37:45;;;;;;;;;;;;;;;13.80;72.94;102980.19;10138759;28;20036;-72
2021/10/07 17:42:41;;;;;;;;;;;;;;;13.73;73.25;102990.69;10134926;28;19925;-71
2021/10/07 17:47:38;;;;;;;;;;;;;;;13.63;73.83;102992.38;10136465;28;19964;-70
2021/10/07 17:52:34;;;;;;;;;;;;;;;13.53;74.40;102997.94;10141409;28;19926;-71
2021/10/07 17:57:31;;;;;;;;;;;;;;;13.47;74.49;103004.56;10133387;28;19988;-71
2021/10/07 18:02:28;;;;;;;;;;;;;;;13.38;74.79;103011.75;10138947;28;19930;-71
2021/10/07 18:07:34;;;;;;;;;;;;;;;13.30;75.03;103009.56;10143676;28;19944;-71
2021/10/07 18:12:32;;;;;;;;;;;;;;;13.21;75.20;103007.38;10116511;28;20435;-72
2021/10/07 18:17:30;;;;;;;;;;;;;;;13.14;75.53;103006.03;10123699;28;19961;-71
2021/10/07 18:22:27;;;;;;;;;;;;;;;13.07;75.47;103014.56;10119519;28;20020;-70
2021/10/07 18:27:25;;;;;;;;;;;;;;;13.00;75.88;103011.31;10123146;28;20019;-71
2021/10/07 18:32:25;;;;;;;;;;;;;;;12.93;76.01;103022.56;10131402;28;20045;-71
2021/10/07 18:37:21;;;;;;;;;;;;;;;12.86;76.52;103013.78;10143422;28;20024;-71
2021/10/07 18:42:18;;;;;;;;;;;;;;;12.77;76.51;103021.75;10135761;28;20012;-70
2021/10/07 18:47:17;;;;;;;;;;;;;;;12.74;76.80;103026.97;10137943;28;20012;-71
2021/10/07 18:52:13;;;;;;;;;;;;;;;12.69;77.09;103026.97;10136842;28;19976;-72
2021/10/07 18:57:09;;;;;;;;;;;;;;;12.61;76.95;103025.63;10147379;28;19926;-72
2021/10/07 19:02:06;;;;;;;;;;;;;;;12.55;77.16;103026.72;10144691;28;19926;-72
2021/10/07 19:07:02;;;;;;;;;;;;;;;12.49;77.46;103038.81;10140654;28;20016;-71
2021/10/07 19:11:58;;;;;;;;;;;;;;;12.43;77.36;103041.53;10144110;28;19930;-71
2021/10/07 19:16:55;;;;;;;;;;;;;;;12.38;77.75;103038.78;10152444;28;19991;-71
2021/10/07 19:21:51;;;;;;;;;;;;;;;12.30;77.97;103039.34;10128116;28;19921;-71
2021/10/07 19:26:47;;;;;;;;;;;;;;;12.25;78.04;103033.81;10138427;28;20028;-71
2021/10/07 19:31:44;;;;;;;;;;;;;;;12.20;78.23;103036.56;10126720;28;20261;-72
2021/10/07 19:36:41;;;;;;;;;;;;;;;12.14;78.26;103027.53;10137859;28;20033;-72
2021/10/07 19:41:37;;;;;;;;;;;;;;;12.09;78.23;103032.16;10140343;28;19984;-71
2021/10/07 19:46:34;;;;;;;;;;;;;;;12.03;78.27;103030.53;10126688;28;20462;-72
2021/10/07 19:51:30;;;;;;;;;;;;;;;11.98;78.24;103039.56;10143987;28;19976;-68
2021/10/07 19:56:26;;;;;;;;;;;;;;;11.91;78.62;103034.34;10146719;28;19972;-68
2021/10/07 20:01:23;;;;;;;;;;;;;;;11.85;78.99;103038.13;10148272;28;20340;-69
2021/10/07 20:06:19;;;;;;;;;;;;;;;11.78;79.03;103029.31;10149397;28;19926;-69
2021/10/07 20:11:16;;;;;;;;;;;;;;;11.73;79.35;103043.00;10144890;28;20630;-69
2021/10/07 20:16:12;;;;;;;;;;;;;;;11.67;79.43;103038.59;10149854;28;20004;-68
2021/10/07 20:21:10;;;;;;;;;;;;;;;11.62;79.65;103046.81;10143297;28;20011;-69
2021/10/07 20:26:06;;;;;;;;;;;;;;;11.56;79.53;103049.53;10145646;28;19957;-69
2021/10/07 20:31:03;;;;;;;;;;;;;;;11.49;79.82;103048.97;10135369;28;19958;-69
2021/10/07 20:36:02;;;;;;;;;;;;;;;11.43;79.77;103050.00;10145801;28;19961;-69
2021/10/07 20:40:58;;;;;;;;;;;;;;;11.40;80.14;103052.47;10143052;28;19961;-69
2021/10/07 20:45:55;;;;;;;;;;;;;;;11.31;79.92;103052.16;10141371;28;20412;-69
2021/10/07 20:50:51;;;;;;;;;;;;;;;11.28;80.42;103064.47;10144958;28;19957;-69
2021/10/07 20:55:47;;;;;;;;;;;;;;;11.24;80.02;103057.03;10145722;28;19980;-70
2021/10/07 21:00:43;;;;;;;;;;;;;;;11.20;79.84;103066.88;10143702;28;19997;-69
2021/10/07 21:05:40;;;;;;;;;;;;;;;11.16;80.08;103072.88;10155911;28;19930;-68
2021/10/07 21:10:36;;;;;;;;;;;;;;;11.11;80.60;103064.63;10143234;28;20351;-68
2021/10/07 21:15:32;;;;;;;;;;;;;;;11.08;80.34;103076.09;10139095;28;19925;-68
2021/10/07 21:20:29;;;;;;;;;;;;;;;11.01;80.77;103075.50;10140771;28;19934;-68
2021/10/07 21:25:25;;;;;;;;;;;;;;;10.95;80.80;103071.94;10152311;28;19956;-68
2021/10/07 21:30:21;;;;;;;;;;;;;;;10.89;80.62;103077.63;10132517;28;19965;-68
2021/10/07 21:35:18;;;;;;;;;;;;;;;10.82;81.15;103077.03;10143097;28;19921;-68
2021/10/07 21:40:17;;;;;;;;;;;;;;;10.78;80.57;103073.16;10142457;28;19960;-69
2021/10/07 21:45:13;;;;;;;;;;;;;;;10.71;81.11;103071.44;10138654;28;20041;-68
2021/10/07 21:50:10;;;;;;;;;;;;;;;10.64;81.15;103079.06;10135250;28;20422;-67
2021/10/07 21:55:06;;;;;;;;;;;;;;;10.58;81.14;103077.34;10130352;28;20245;-67
2021/10/07 22:00:32;;;;;;;;;;;;;;;10.53;81.59;103080.03;10154624;28;19929;-67
2021/10/07 22:05:29;;;;;;;;;;;;;;;10.49;81.67;103079.75;10116566;28;20396;-69
2021/10/07 22:10:25;;;;;;;;;;;;;;;10.45;81.34;103086.00;10148826;28;20011;-68
2021/10/07 22:15:21;;;;;;;;;;;;;;;10.40;81.12;103086.78;10143073;28;20042;-68
2021/10/07 22:20:17;;;;;;;;;;;;;;;10.32;80.91;103090.78;10135246;28;19949;-68
2021/10/07 22:25:14;;;;;;;;;;;;;;;10.30;81.40;103098.44;10142184;28;19921;-68
2021/10/07 22:30:11;;;;;;;;;;;;;;;10.25;81.66;103095.59;10144717;28;19977;-69
2021/10/07 22:35:08;;;;;;;;;;;;;;;10.18;81.63;103094.97;10139751;28;20424;-69
2021/10/07 22:40:08;;;;;;;;;;;;;;;10.11;81.36;103089.72;10135833;28;20013;-68
2021/10/07 22:45:06;;;;;;;;;;;;;;;10.07;82.06;103099.53;10137347;28;20674;-68
2021/10/07 22:50:03;;;;;;;;;;;;;;;10.00;82.00;103098.91;10134510;28;20359;-69
2021/10/07 22:54:59;;;;;;;;;;;;;;;9.98;81.78;103094.75;10143281;28;19926;-67
2021/10/07 22:59:55;;;;;;;;;;;;;;;9.95;81.78;103101.56;10147912;28;20439;-69
2021/10/07 23:04:52;;;;;;;;;;;;;;;9.90;82.05;103099.59;10154039;28;19926;-69
2021/10/07 23:09:48;;;;;;;;;;;;;;;9.87;82.09;103100.09;10146871;28;19982;-69
2021/10/07 23:14:44;;;;;;;;;;;;;;;9.80;82.07;103093.19;10139048;28;20407;-69
2021/10/07 23:19:41;;;;;;;;;;;;;;;9.75;82.48;103104.88;10146833;28;19932;-68
2021/10/07 23:24:37;;;;;;;;;;;;;;;9.67;81.73;103100.66;10151144;28;20000;-68
2021/10/07 23:29:33;;;;;;;;;;;;;;;9.61;82.29;103096.25;10147559;28;19928;-69
2021/10/07 23:34:30;;;;;;;;;;;;;;;9.59;82.09;103100.31;10150679;28;20033;-68
2021/10/07 23:39:26;;;;;;;;;;;;;;;9.54;81.72;103105.69;10151261;28;20016;-69
2021/10/07 23:44:22;;;;;;;;;;;;;;;9.47;82.25;103105.88;10150020;28;19922;-70
2021/10/07 23:49:19;;;;;;;;;;;;;;;9.42;82.24;103103.06;10154220;28;19925;-70
2021/10/07 23:54:15;;;;;;;;;;;;;;;9.39;82.27;103098.94;10147936;28;19976;-68
2021/10/07 23:59:12;;;;;;;;;;;;;;;9.35;82.37;103097.81;10146048;28;20021;-68
